createdAt,value
2022-09-26T00:04:46.238Z,11.88
2022-09-26T00:09:54.632Z,11.94
2022-09-26T00:15:01.679Z,11.94
2022-09-26T00:20:09.680Z,11.94
2022-09-26T00:25:32.567Z,11.92
2022-09-26T00:41:28.453Z,11.92
2022-09-26T00:41:28.481Z,11.92
2022-09-26T00:41:28.482Z,11.92
2022-09-26T00:41:28.482Z,11.92
2022-09-26T00:41:28.482Z,11.92
2022-09-26T00:41:28.482Z,11.92
2022-09-26T00:41:28.482Z,11.92
2022-09-26T00:41:28.482Z,11.92
2022-09-26T00:41:28.508Z,11.92
2022-09-26T00:41:28.523Z,11.92
2022-09-26T00:41:28.523Z,11.92
2022-09-26T00:41:28.523Z,11.92
2022-09-26T00:41:28.523Z,11.92
2022-09-26T00:41:28.523Z,11.92
2022-09-26T00:41:28.975Z,11.92
2022-09-26T00:46:35.164Z,11.92
2022-09-26T00:51:43.231Z,11.88
2022-09-26T00:56:50.153Z,11.9
2022-09-26T01:01:57.618Z,11.9
2022-09-26T01:07:05.106Z,11.9
2022-09-26T01:12:12.787Z,11.92
2022-09-26T01:17:20.294Z,11.92
2022-09-26T01:22:27.450Z,11.92
2022-09-26T01:27:34.608Z,11.92
2022-09-26T01:32:42.387Z,11.88
2022-09-26T01:37:49.017Z,11.88
2022-09-26T01:42:56.508Z,11.88
2022-09-26T01:48:04.077Z,11.88
2022-09-26T01:53:11.276Z,11.86
2022-09-26T01:58:19.159Z,11.85
2022-09-26T02:03:26.967Z,11.84
2022-09-26T02:08:35.541Z,11.84
2022-09-26T02:13:43.139Z,11.82
2022-09-26T02:18:51.093Z,11.78
2022-09-26T02:23:58.297Z,11.76
2022-09-26T02:29:07.293Z,11.75
2022-09-26T02:34:15.054Z,11.71
2022-09-26T02:39:23.308Z,11.66
2022-09-26T02:44:30.317Z,11.63
2022-09-26T02:49:36.901Z,11.62
2022-09-26T02:54:44.918Z,11.64
2022-09-26T02:59:52.541Z,11.63
2022-09-26T03:05:00.384Z,11.61
2022-09-26T03:14:40.879Z,11.52
2022-09-26T03:19:46.074Z,11.54
2022-09-26T03:24:53.915Z,11.59
2022-09-26T03:30:01.915Z,11.61
2022-09-26T03:35:10.305Z,11.6
2022-09-26T03:40:16.852Z,11.6
2022-09-26T03:45:24.769Z,11.58
2022-09-26T03:50:32.288Z,11.55
2022-09-26T03:55:45.489Z,11.48
2022-09-26T04:00:55.939Z,11.38
2022-09-26T04:06:03.126Z,11.34
2022-09-26T04:11:11.123Z,11.38
2022-09-26T04:16:18.571Z,11.42
2022-09-26T04:21:26.379Z,11.43
2022-09-26T04:26:34.830Z,11.39
2022-09-26T04:31:41.695Z,11.29
2022-09-26T04:36:50.653Z,11.17
2022-09-26T04:41:59.126Z,10.98
2022-09-26T04:47:06.547Z,10.78
2022-09-26T04:52:14.449Z,10.56
2022-09-26T04:57:23.001Z,10.54
2022-09-26T05:02:30.653Z,10.59
2022-09-26T05:07:37.869Z,10.54
2022-09-26T05:12:45.258Z,10.44
2022-09-26T05:17:52.260Z,10.47
2022-09-26T05:23:00.254Z,10.47
2022-09-26T05:28:09.109Z,10.58
2022-09-26T05:33:16.412Z,10.8
2022-09-26T05:38:24.922Z,11.2
2022-09-26T05:43:33.912Z,11.52
2022-09-26T05:48:41.879Z,11.76
2022-09-26T05:53:49.692Z,12.07
2022-09-26T05:58:57.935Z,12.32
2022-09-26T06:04:05.427Z,12.33
2022-09-26T06:09:12.607Z,12.3
2022-09-26T06:14:21.080Z,12.36
2022-09-26T06:19:30.177Z,12.44
2022-09-26T06:24:38.021Z,12.51
2022-09-26T06:29:45.220Z,12.82
2022-09-26T06:34:53.104Z,13.24
2022-09-26T06:40:00.944Z,13.98
2022-09-26T06:45:08.608Z,15.42
2022-09-26T06:50:17.223Z,16.41
2022-09-26T06:55:24.419Z,17.06
2022-09-26T07:00:32.823Z,20.74
2022-09-26T07:05:41.689Z,20.86
2022-09-26T07:10:49.266Z,19.14
2022-09-26T07:15:57.560Z,22.03
2022-09-26T07:21:06.711Z,23.28
2022-09-26T07:26:13.382Z,24.23
2022-09-26T07:31:20.580Z,24.92
2022-09-26T07:36:29.921Z,26.26
2022-09-26T07:41:37.596Z,27.38
2022-09-26T07:46:44.785Z,26.5
2022-09-26T07:51:52.567Z,28.26
2022-09-26T07:57:00.267Z,29.36
2022-09-26T08:02:09.317Z,29.8
2022-09-26T08:07:17.592Z,30.15
2022-09-26T08:12:25.261Z,30.4
2022-09-26T08:17:34.726Z,29.42
2022-09-26T08:22:42.544Z,27.4
2022-09-26T08:27:51.521Z,28.19
2022-09-26T08:32:57.860Z,29.25
2022-09-26T08:38:05.711Z,29.93
2022-09-26T08:43:12.900Z,30.64
2022-09-26T08:48:21.343Z,27.79
2022-09-26T08:53:27.993Z,25.58
2022-09-26T08:58:35.828Z,23.66
2022-09-26T09:03:44.018Z,22.3
2022-09-26T09:08:50.884Z,21.58
2022-09-26T09:14:00.039Z,21.84
2022-09-26T09:19:08.453Z,24.16
2022-09-26T09:24:14.977Z,24.32
2022-09-26T09:29:21.615Z,24.72
2022-09-26T09:34:28.733Z,24.73
2022-09-26T09:39:36.126Z,26.66
2022-09-26T09:44:44.095Z,27.94
2022-09-26T09:49:52.026Z,27.08
2022-09-26T09:55:00.061Z,28.52
2022-09-26T10:00:06.703Z,26.57
2022-09-26T10:05:13.901Z,23.78
2022-09-26T10:10:21.420Z,21.86
2022-09-26T10:15:29.737Z,21.01
2022-09-26T10:20:37.398Z,21.9
2022-09-26T10:25:45.312Z,22.34
2022-09-26T10:30:53.697Z,24.15
2022-09-26T10:36:01.064Z,26.62
2022-09-26T10:41:08.139Z,25.76
2022-09-26T10:46:15.826Z,23.54
2022-09-26T10:51:22.505Z,21.89
2022-09-26T10:56:29.842Z,20.29
2022-09-26T11:01:36.580Z,19.97
2022-09-26T11:06:44.849Z,21.78
2022-09-26T11:11:54.493Z,23.44
2022-09-26T11:17:01.907Z,24.19
2022-09-26T11:22:11.394Z,23.93
2022-09-26T11:27:19.347Z,24.43
2022-09-26T11:32:26.543Z,24.67
2022-09-26T11:37:33.860Z,25.14
2022-09-26T11:42:45.638Z,24.46
2022-09-26T11:47:52.582Z,24.11
2022-09-26T11:53:01.452Z,23.43
2022-09-26T11:58:09.560Z,23.1
2022-09-26T12:03:17.517Z,21.03
2022-09-26T12:08:25.234Z,19.56
2022-09-26T12:13:33.343Z,20.64
2022-09-26T12:18:42.474Z,22.68
2022-09-26T12:23:51.170Z,23.7
2022-09-26T12:29:00.279Z,23.96
2022-09-26T12:34:07.558Z,22.89
2022-09-26T12:39:15.248Z,22.12
2022-09-26T12:44:22.782Z,22.06
2022-09-26T12:49:30.253Z,22.44
2022-09-26T12:54:37.771Z,22.79
2022-09-26T12:59:46.551Z,23.15
2022-09-26T13:04:54.015Z,23.3
2022-09-26T13:10:01.168Z,23.03
2022-09-26T13:15:08.824Z,22.04
2022-09-26T13:20:17.306Z,21.9
2022-09-26T13:25:24.518Z,22.22
2022-09-26T13:30:32.626Z,22.14
2022-09-26T13:35:39.824Z,21.84
2022-09-26T13:40:46.937Z,21.54
2022-09-26T13:45:54.876Z,21.34
2022-09-26T13:51:02.073Z,21.34
2022-09-26T13:56:09.856Z,21.4
2022-09-26T14:01:18.768Z,21.2
2022-09-26T14:06:26.746Z,21.26
2022-09-26T14:11:34.668Z,21.21
2022-09-26T14:16:42.020Z,21.17
2022-09-26T14:21:49.065Z,20.11
2022-09-26T14:26:56.263Z,19.02
2022-09-26T14:32:03.733Z,18.11
2022-09-26T14:37:12.192Z,17.52
2022-09-26T14:42:19.463Z,17.2
2022-09-26T14:47:27.188Z,17.88
2022-09-26T14:52:34.296Z,18.48
2022-09-26T14:57:40.811Z,18.12
2022-09-26T15:02:49.255Z,17.94
2022-09-26T15:07:57.609Z,17.9
2022-09-26T15:13:05.456Z,17.88
2022-09-26T15:18:13.649Z,17.69
2022-09-26T15:23:19.916Z,17.35
2022-09-26T15:28:27.876Z,16.89
2022-09-26T15:33:35.828Z,16.23
2022-09-26T15:38:43.131Z,15.65
2022-09-26T15:43:50.616Z,15.17
2022-09-26T15:48:57.277Z,14.78
2022-09-26T15:54:04.943Z,14.36
